createdAt,value
2022-10-24T00:00:37.925Z,1000.36
2022-10-24T00:02:36.113Z,1000.36
2022-10-24T00:04:35.235Z,1000.36
2022-10-24T00:06:35.723Z,1000.36
2022-10-24T00:08:35.331Z,1000.38
2022-10-24T00:10:35.694Z,1000.38
2022-10-24T00:12:35.596Z,1000.43
2022-10-24T00:14:35.353Z,1000.43
2022-10-24T00:16:35.828Z,1000.34
2022-10-24T00:18:35.708Z,1000.34
2022-10-24T00:20:35.584Z,1000.37
2022-10-24T00:22:35.676Z,1000.37
2022-10-24T00:24:35.091Z,1000.38
2022-10-24T00:26:35.981Z,1000.38
2022-10-24T00:28:35.134Z,1000.28
2022-10-24T00:30:35.335Z,1000.28
2022-10-24T00:32:35.338Z,1000.16
2022-10-24T00:34:35.628Z,1000.16
2022-10-24T00:36:34.990Z,1000.21
2022-10-24T00:38:35.126Z,1000.21
2022-10-24T00:40:35.576Z,1000.22
2022-10-24T00:42:35.089Z,1000.22
2022-10-24T00:44:35.812Z,1000.21
2022-10-24T00:46:35.274Z,1000.21
2022-10-24T00:48:35.873Z,1000.23
2022-10-24T00:50:35.321Z,1000.23
2022-10-24T00:52:35.942Z,1000.1
2022-10-24T00:54:35.495Z,1000.1
2022-10-24T00:56:35.928Z,1000.11
2022-10-24T00:58:35.557Z,1000.11
2022-10-24T01:00:40.540Z,1000.06
2022-10-24T01:02:35.345Z,1000.06
2022-10-24T01:04:35.423Z,1000.05
2022-10-24T01:06:35.089Z,1000.05
2022-10-24T01:08:35.897Z,999.91
2022-10-24T01:12:35.696Z,999.85
2022-10-24T01:14:35.379Z,999.85
2022-10-24T01:16:35.845Z,999.94
2022-10-24T01:18:35.816Z,999.87
2022-10-24T01:20:35.316Z,999.87
2022-10-24T01:22:35.063Z,999.86
2022-10-24T01:24:35.332Z,999.86
2022-10-24T01:26:35.702Z,999.94
2022-10-24T01:28:35.466Z,999.94
2022-10-24T01:30:35.598Z,999.93
2022-10-24T01:32:35.521Z,999.93
2022-10-24T01:34:35.774Z,999.79
2022-10-24T01:36:35.647Z,999.79
2022-10-24T01:38:35.311Z,999.74
2022-10-24T01:40:35.430Z,999.74
2022-10-24T01:42:35.668Z,999.69
2022-10-24T01:44:35.109Z,999.69
2022-10-24T01:46:35.799Z,999.64
2022-10-24T01:48:35.780Z,999.64
2022-10-24T01:50:35.269Z,999.54
2022-10-24T01:52:35.998Z,999.54
2022-10-24T01:54:35.429Z,999.65
2022-10-24T01:56:35.393Z,999.65
2022-10-24T01:58:36.018Z,999.53
2022-10-24T02:00:38.074Z,999.53
2022-10-24T02:02:35.274Z,999.56
2022-10-24T02:04:35.774Z,999.56
2022-10-24T02:06:35.534Z,999.44
2022-10-24T02:08:35.885Z,999.44
2022-10-24T02:10:35.239Z,999.53
2022-10-24T02:12:35.199Z,999.53
2022-10-24T02:14:35.591Z,999.49
2022-10-24T02:16:35.083Z,999.49
2022-10-24T02:18:35.335Z,999.37
2022-10-24T02:20:35.990Z,999.37
2022-10-24T02:22:35.541Z,999.51
2022-10-24T02:24:35.037Z,999.51
2022-10-24T02:26:35.378Z,999.43
2022-10-24T02:28:35.878Z,999.43
2022-10-24T02:30:35.839Z,999.5
2022-10-24T02:32:35.125Z,999.5
2022-10-24T02:34:35.245Z,999.5
2022-10-24T02:36:35.244Z,999.5
2022-10-24T02:38:35.477Z,999.4
2022-10-24T02:40:36.035Z,999.4
2022-10-24T02:42:35.372Z,999.4
2022-10-24T02:44:35.852Z,999.4
2022-10-24T02:46:35.671Z,999.38
2022-10-24T02:48:35.646Z,999.38
2022-10-24T02:50:35.588Z,999.34
2022-10-24T02:52:35.261Z,999.34
2022-10-24T02:54:35.380Z,999.37
2022-10-24T02:56:35.779Z,999.37
2022-10-24T02:58:35.379Z,999.35
2022-10-24T03:00:38.436Z,999.35
2022-10-24T03:02:35.679Z,999.32
2022-10-24T03:04:35.388Z,999.32
2022-10-24T03:06:35.334Z,999.21
2022-10-24T03:08:35.850Z,999.21
2022-10-24T03:10:35.364Z,999.2
2022-10-24T03:12:35.621Z,999.2
2022-10-24T03:14:35.767Z,999.23
2022-10-24T03:16:36.928Z,999.23
2022-10-24T03:18:35.355Z,999.14
2022-10-24T03:20:35.051Z,999.14
2022-10-24T03:22:42.109Z,999.1
2022-10-24T03:24:55.769Z,999.1
2022-10-24T03:26:35.276Z,999.14
2022-10-24T03:28:35.832Z,999.14
2022-10-24T03:30:35.653Z,999.14
2022-10-24T03:32:35.927Z,999.14
2022-10-24T03:34:35.394Z,999.11
2022-10-24T03:36:35.461Z,999.11
2022-10-24T03:38:35.842Z,999.17
2022-10-24T03:40:36.051Z,999.17
2022-10-24T03:42:35.835Z,999.22
2022-10-24T03:44:35.716Z,999.22
2022-10-24T03:46:35.496Z,999.12
2022-10-24T03:48:35.487Z,999.12
2022-10-24T03:50:35.765Z,999.19
2022-10-24T03:52:35.932Z,999.19
2022-10-24T03:54:35.208Z,999.14
2022-10-24T03:56:35.336Z,999.14
2022-10-24T03:58:35.507Z,999.16
2022-10-24T04:00:40.759Z,999.16
2022-10-24T04:02:37.082Z,999.07
2022-10-24T04:04:35.733Z,999.07
2022-10-24T04:06:36.701Z,999.16
2022-10-24T04:08:35.946Z,999.16
2022-10-24T04:10:35.442Z,999.01
2022-10-24T04:12:36.045Z,999.01
2022-10-24T04:14:36.238Z,999.18
2022-10-24T04:16:35.470Z,999.18
2022-10-24T04:18:35.970Z,999.01
2022-10-24T04:20:35.695Z,999.01
2022-10-24T04:22:35.607Z,999.14
2022-10-24T04:24:35.768Z,999.14
2022-10-24T04:26:35.222Z,999.22
2022-10-24T04:28:36.001Z,999.22
2022-10-24T04:30:39.486Z,999.1
2022-10-24T04:32:35.085Z,999.1
2022-10-24T04:34:35.733Z,999.05
2022-10-24T04:36:35.970Z,999.05
2022-10-24T04:38:35.357Z,999.03
2022-10-24T04:40:35.853Z,998.98
2022-10-24T04:42:35.122Z,998.98
2022-10-24T04:44:35.250Z,998.79
2022-10-24T04:46:35.956Z,998.79
2022-10-24T04:48:35.454Z,998.84
2022-10-24T04:50:35.835Z,998.84
2022-10-24T04:52:35.875Z,998.87
2022-10-24T04:54:35.326Z,998.87
2022-10-24T04:56:35.549Z,998.85
2022-10-24T04:58:35.834Z,998.85
2022-10-24T05:00:38.181Z,998.75
2022-10-24T05:02:36.114Z,998.75
2022-10-24T05:04:35.874Z,998.84
2022-10-24T05:06:35.534Z,998.84
2022-10-24T05:08:35.172Z,998.7
2022-10-24T05:10:35.293Z,998.7
2022-10-24T05:12:35.676Z,998.93
2022-10-24T05:14:35.915Z,998.93
2022-10-24T05:16:35.905Z,998.99
2022-10-24T05:18:35.266Z,998.99
2022-10-24T05:20:35.876Z,998.95
2022-10-24T05:22:39.797Z,998.95
2022-10-24T05:24:35.821Z,999.04
2022-10-24T05:26:35.402Z,999.04
2022-10-24T05:28:35.089Z,998.94
2022-10-24T05:30:35.138Z,998.94
2022-10-24T05:32:38.738Z,998.94
2022-10-24T05:34:35.514Z,998.94
2022-10-24T05:36:35.091Z,998.88
2022-10-24T05:38:35.578Z,998.88
2022-10-24T05:40:35.582Z,999.01
2022-10-24T05:42:35.912Z,999.01
2022-10-24T05:44:35.429Z,998.96
2022-10-24T05:46:35.943Z,998.96
2022-10-24T05:48:35.300Z,998.93
2022-10-24T05:50:35.820Z,998.93
2022-10-24T05:52:35.222Z,998.92
2022-10-24T05:55:02.558Z,998.92
2022-10-24T05:56:36.056Z,998.94
2022-10-24T05:58:35.403Z,998.94
2022-10-24T06:00:38.201Z,998.81
2022-10-24T06:02:36.641Z,998.81
2022-10-24T06:04:36.602Z,998.96
2022-10-24T06:06:35.043Z,998.96
2022-10-24T06:08:35.242Z,999.06
2022-10-24T06:10:35.469Z,999.06
2022-10-24T06:12:35.238Z,999.03
2022-10-24T06:14:36.008Z,999.03
2022-10-24T06:16:35.700Z,999.11
2022-10-24T06:18:35.404Z,999.11
2022-10-24T06:20:35.803Z,999.18
2022-10-24T06:22:35.905Z,999.18
2022-10-24T06:24:35.902Z,999.24
2022-10-24T06:26:35.980Z,999.24
2022-10-24T06:28:35.833Z,999.32
2022-10-24T06:30:35.813Z,999.32
2022-10-24T06:32:35.347Z,999.57
2022-10-24T06:34:35.689Z,999.57
2022-10-24T06:38:35.061Z,999.66
2022-10-24T06:40:35.715Z,999.65
2022-10-24T06:42:35.245Z,999.65
2022-10-24T06:44:35.098Z,999.85
2022-10-24T06:46:35.058Z,999.85
2022-10-24T06:48:35.470Z,999.88
2022-10-24T06:50:35.858Z,999.88
2022-10-24T06:52:35.694Z,1000.02
2022-10-24T06:54:41.248Z,1000.02
2022-10-24T06:56:35.993Z,1000.08
2022-10-24T06:58:35.016Z,1000.08
2022-10-24T07:00:40.039Z,1000.27
2022-10-24T07:02:40.234Z,1000.27
2022-10-24T07:04:35.247Z,1000.38
2022-10-24T07:06:35.781Z,1000.38
2022-10-24T07:08:35.599Z,1000.39
2022-10-24T07:10:35.890Z,1000.39
2022-10-24T07:12:35.278Z,1000.33
2022-10-24T07:14:39.451Z,1000.33
2022-10-24T07:16:35.282Z,1000.35
2022-10-24T07:18:35.391Z,1000.35
2022-10-24T07:20:35.219Z,1000.45
2022-10-24T07:22:35.597Z,1000.45
2022-10-24T07:24:35.067Z,1000.6
2022-10-24T07:26:35.406Z,1000.6
2022-10-24T07:28:34.975Z,1000.93
2022-10-24T07:30:39.739Z,1000.93
2022-10-24T07:32:35.586Z,1000.96
2022-10-24T07:34:35.727Z,1000.96
2022-10-24T07:36:37.759Z,1000.88
2022-10-24T07:38:41.086Z,1000.88
2022-10-24T07:40:35.901Z,1000.79
2022-10-24T07:42:35.296Z,1000.79
2022-10-24T07:44:35.595Z,1000.84
2022-10-24T07:46:35.167Z,1000.84
2022-10-24T07:48:35.426Z,1000.9
2022-10-24T07:50:35.721Z,1000.9
2022-10-24T07:52:35.728Z,1001
2022-10-24T07:54:37.350Z,1001
2022-10-24T07:56:35.276Z,1001.13
2022-10-24T07:58:35.787Z,1001.13
2022-10-24T08:00:42.567Z,1001.13
2022-10-24T08:02:35.237Z,1001.15
2022-10-24T08:04:35.373Z,1001.15
2022-10-24T08:06:35.472Z,1001.18
2022-10-24T08:09:02.435Z,1001.18
2022-10-24T08:10:35.239Z,1001.13
2022-10-24T08:12:35.819Z,1001.13
2022-10-24T08:14:35.301Z,1001.24
2022-10-24T08:16:35.385Z,1001.24
2022-10-24T08:18:39.614Z,1001.23
2022-10-24T08:20:35.931Z,1001.23
2022-10-24T08:22:35.145Z,1001.26
2022-10-24T08:24:35.794Z,1001.26
2022-10-24T08:26:35.046Z,1001.38
2022-10-24T08:28:40.403Z,1001.38
2022-10-24T08:30:35.548Z,1001.4
2022-10-24T08:32:35.554Z,1001.4
2022-10-24T08:34:35.550Z,1001.44
2022-10-24T08:36:35.204Z,1001.44
2022-10-24T08:38:35.406Z,1001.49
2022-10-24T08:40:35.925Z,1001.49
2022-10-24T08:42:35.061Z,1001.5
2022-10-24T08:44:35.562Z,1001.5
2022-10-24T08:46:35.853Z,1001.6
2022-10-24T08:48:35.263Z,1001.6
2022-10-24T08:50:35.435Z,1001.66
2022-10-24T08:52:35.186Z,1001.66
2022-10-24T08:54:35.736Z,1001.72
2022-10-24T08:56:35.736Z,1001.72
2022-10-24T08:58:35.998Z,1001.89
2022-10-24T09:00:39.907Z,1001.89
2022-10-24T09:02:39.202Z,1001.97
2022-10-24T09:04:34.977Z,1001.97
2022-10-24T09:06:35.831Z,1002.06
2022-10-24T09:08:35.639Z,1002.06
2022-10-24T09:10:35.360Z,1001.98
2022-10-24T09:12:35.090Z,1001.98
2022-10-24T09:14:35.159Z,1001.95
2022-10-24T09:16:35.778Z,1001.95
2022-10-24T09:18:35.228Z,1002.18
2022-10-24T09:20:35.126Z,1002.18
2022-10-24T09:22:36.181Z,1002.14
2022-10-24T09:24:35.875Z,1002.14
2022-10-24T09:26:35.751Z,1002.35
2022-10-24T09:28:34.986Z,1002.35
2022-10-24T09:30:41.411Z,1002.31
2022-10-24T09:32:35.407Z,1002.31
2022-10-24T09:34:35.401Z,1002.41
2022-10-24T09:36:35.411Z,1002.41
2022-10-24T09:38:35.151Z,1002.42
2022-10-24T09:40:35.643Z,1002.42
2022-10-24T09:42:35.412Z,1002.53
2022-10-24T09:44:35.739Z,1002.53
2022-10-24T09:46:35.363Z,1002.59
2022-10-24T09:48:41.572Z,1002.59
2022-10-24T09:50:35.412Z,1002.57
2022-10-24T09:52:35.648Z,1002.57
2022-10-24T09:54:35.126Z,1002.63
2022-10-24T09:56:35.434Z,1002.63
2022-10-24T09:58:35.423Z,1002.81
2022-10-24T10:00:37.526Z,1002.81
2022-10-24T10:02:36.355Z,1002.8
2022-10-24T10:04:42.734Z,1002.8
2022-10-24T10:06:35.366Z,1002.98
2022-10-24T10:08:35.740Z,1002.98
2022-10-24T10:10:35.800Z,1003.06
2022-10-24T10:12:37.087Z,1003.06
2022-10-24T10:14:35.436Z,1003.04
2022-10-24T10:16:38.656Z,1003.04
2022-10-24T10:18:35.387Z,1002.98
2022-10-24T10:20:41.352Z,1002.98
2022-10-24T10:22:35.820Z,1003.15
2022-10-24T10:24:35.263Z,1003.15
2022-10-24T10:26:35.802Z,1003.17
2022-10-24T10:28:37.060Z,1003.17
2022-10-24T10:30:35.257Z,1003.2
2022-10-24T10:32:35.067Z,1003.2
2022-10-24T10:34:39.869Z,1003.18
2022-10-24T10:36:35.340Z,1003.18
2022-10-24T10:38:35.420Z,1003.51
2022-10-24T10:40:35.787Z,1003.51
2022-10-24T10:42:35.701Z,1003.48
2022-10-24T10:44:35.295Z,1003.48
2022-10-24T10:46:35.404Z,1003.57
2022-10-24T10:48:35.349Z,1003.57
2022-10-24T10:50:36.060Z,1003.63
2022-10-24T10:52:35.735Z,1003.63
2022-10-24T10:54:35.963Z,1003.59
2022-10-24T10:56:35.767Z,1003.59
2022-10-24T11:00:38.451Z,1003.74
2022-10-24T11:02:36.538Z,1003.76
2022-10-24T11:04:35.957Z,1003.76
2022-10-24T11:06:35.720Z,1003.69
2022-10-24T11:08:39.781Z,1003.69
2022-10-24T11:10:35.638Z,1003.72
2022-10-24T11:12:35.017Z,1003.72
2022-10-24T11:14:35.281Z,1003.62
2022-10-24T11:16:35.554Z,1003.62
2022-10-24T11:18:35.632Z,1003.81
2022-10-24T11:20:35.877Z,1004.01
2022-10-24T11:22:35.767Z,1004.01
2022-10-24T11:24:36.629Z,1003.85
2022-10-24T11:26:35.781Z,1003.85
2022-10-24T11:28:35.448Z,1003.91
2022-10-24T11:30:38.038Z,1003.91
2022-10-24T11:32:35.485Z,1004.04
2022-10-24T11:34:35.200Z,1004.04
2022-10-24T11:36:35.811Z,1004.06
2022-10-24T11:38:35.336Z,1004.06
2022-10-24T11:40:36.261Z,1004.11
2022-10-24T11:42:36.487Z,1004.11
2022-10-24T11:44:35.351Z,1004.17
2022-10-24T11:46:35.149Z,1004.17
2022-10-24T11:48:35.412Z,1004.15
2022-10-24T11:50:37.296Z,1004.15
2022-10-24T11:52:35.782Z,1004.19
2022-10-24T11:54:35.777Z,1004.19
2022-10-24T11:56:38.726Z,1004.25
2022-10-24T11:58:35.103Z,1004.25
2022-10-24T12:00:37.857Z,1004.25
2022-10-24T12:02:35.716Z,1004.25
2022-10-24T12:04:35.753Z,1004.43
2022-10-24T12:06:35.916Z,1004.43
2022-10-24T12:08:35.627Z,1004.32
2022-10-24T12:10:35.009Z,1004.32
2022-10-24T12:12:35.879Z,1004.28
2022-10-24T12:14:35.242Z,1004.28
2022-10-24T12:16:35.325Z,1004.29
2022-10-24T12:18:35.430Z,1004.29
2022-10-24T12:20:36.099Z,1004.28
2022-10-24T12:22:35.626Z,1004.28
2022-10-24T12:24:35.531Z,1004.24
2022-10-24T12:26:35.109Z,1004.24
2022-10-24T12:28:35.429Z,1004.29
2022-10-24T12:30:35.531Z,1004.29
2022-10-24T12:32:35.839Z,1004.3
2022-10-24T12:34:35.354Z,1004.3
2022-10-24T12:36:35.596Z,1004.34
2022-10-24T12:38:35.312Z,1004.34
2022-10-24T12:40:35.747Z,1004.35
2022-10-24T12:42:35.022Z,1004.35
2022-10-24T12:44:35.561Z,1004.43
2022-10-24T12:46:35.865Z,1004.43
2022-10-24T12:48:35.427Z,1004.46
2022-10-24T12:50:35.701Z,1004.46
2022-10-24T12:52:35.921Z,1004.47
2022-10-24T12:54:35.265Z,1004.47
2022-10-24T12:56:35.451Z,1004.51
2022-10-24T12:58:35.880Z,1004.51
2022-10-24T13:00:39.786Z,1004.5
2022-10-24T13:02:38.236Z,1004.5
2022-10-24T13:04:35.749Z,1004.51
2022-10-24T13:06:35.096Z,1004.51
2022-10-24T13:08:35.985Z,1004.6
2022-10-24T13:10:35.367Z,1004.6
2022-10-24T13:12:35.506Z,1004.65
2022-10-24T13:14:35.455Z,1004.65
2022-10-24T13:16:35.455Z,1004.66
2022-10-24T13:18:35.495Z,1004.66
2022-10-24T13:20:35.978Z,1004.66
2022-10-24T13:22:35.550Z,1004.66
2022-10-24T13:24:35.200Z,1004.49
2022-10-24T13:26:35.220Z,1004.49
2022-10-24T13:28:35.574Z,1004.75
2022-10-24T13:30:35.288Z,1004.75
2022-10-24T13:32:39.819Z,1004.74
2022-10-24T13:34:35.407Z,1004.74
2022-10-24T13:36:40.025Z,1004.65
2022-10-24T13:38:40.868Z,1004.65
2022-10-24T13:40:35.874Z,1004.64
2022-10-24T13:42:39.089Z,1004.64
2022-10-24T13:44:35.318Z,1004.7
2022-10-24T13:46:36.000Z,1004.7
2022-10-24T13:48:39.094Z,1004.68
2022-10-24T13:50:35.954Z,1004.68
2022-10-24T13:52:35.346Z,1004.67
2022-10-24T13:54:35.705Z,1004.67
2022-10-24T13:56:35.249Z,1004.78
2022-10-24T13:58:38.091Z,1004.78
2022-10-24T14:00:37.459Z,1004.81
2022-10-24T14:02:39.802Z,1004.81
2022-10-24T14:04:34.975Z,1004.66
2022-10-24T14:06:35.829Z,1004.66
2022-10-24T14:08:35.767Z,1004.8
2022-10-24T14:10:35.826Z,1004.8
2022-10-24T14:12:35.771Z,1004.96
2022-10-24T14:14:40.966Z,1004.96
2022-10-24T14:16:35.288Z,1004.97
2022-10-24T14:18:35.873Z,1004.97
2022-10-24T14:20:35.361Z,1005.01
2022-10-24T14:22:35.867Z,1005.01
2022-10-24T14:24:35.118Z,1004.95
2022-10-24T14:28:35.801Z,1004.9
2022-10-24T14:30:35.808Z,1004.9
2022-10-24T14:32:35.442Z,1005.03
2022-10-24T14:34:36.402Z,1005.03
2022-10-24T14:36:35.243Z,1005.2
2022-10-24T14:38:39.903Z,1005.1
2022-10-24T14:40:35.639Z,1005.1
2022-10-24T14:42:35.717Z,1005.19
2022-10-24T14:44:37.458Z,1005.19
2022-10-24T14:46:37.490Z,1005.05
2022-10-24T14:48:35.344Z,1005.05
2022-10-24T14:50:35.783Z,1005.16
2022-10-24T14:52:35.285Z,1005.16
2022-10-24T14:54:35.578Z,1005.1
2022-10-24T14:56:35.873Z,1005.1
2022-10-24T14:58:35.240Z,1005.2
2022-10-24T15:00:38.542Z,1005.2
2022-10-24T15:02:38.904Z,1005.22
2022-10-24T15:04:35.417Z,1005.22
2022-10-24T15:06:35.018Z,1005.2
2022-10-24T15:08:57.366Z,1005.2
2022-10-24T15:10:36.414Z,1005.23
2022-10-24T15:12:35.020Z,1005.23
2022-10-24T15:14:41.218Z,1005.2
2022-10-24T15:16:35.472Z,1005.2
2022-10-24T15:18:35.139Z,1005.34
2022-10-24T15:20:35.436Z,1005.34
2022-10-24T15:22:35.318Z,1005.3
2022-10-24T15:24:35.490Z,1005.3
2022-10-24T15:26:35.436Z,1005.32
2022-10-24T15:28:35.423Z,1005.32
2022-10-24T15:30:36.355Z,1005.26
2022-10-24T15:32:35.549Z,1005.26
2022-10-24T15:34:35.792Z,1005.32
2022-10-24T15:36:43.001Z,1005.32
2022-10-24T15:38:39.038Z,1005.41
2022-10-24T15:40:35.506Z,1005.41
2022-10-24T15:42:38.014Z,1005.44
2022-10-24T15:44:35.474Z,1005.44
2022-10-24T15:46:35.619Z,1005.37
2022-10-24T15:48:35.932Z,1005.37
2022-10-24T15:50:36.050Z,1005.58
2022-10-24T15:52:35.811Z,1005.58
2022-10-24T15:54:35.413Z,1005.5
2022-10-24T15:56:35.332Z,1005.5
2022-10-24T15:58:35.143Z,1005.74
2022-10-24T16:00:37.851Z,1005.74
2022-10-24T16:02:35.486Z,1005.73
2022-10-24T16:04:35.315Z,1005.73
2022-10-24T16:06:35.378Z,1005.62
2022-10-24T16:08:35.697Z,1005.62
2022-10-24T16:10:35.242Z,1005.57
2022-10-24T16:12:35.693Z,1005.57
2022-10-24T16:14:35.435Z,1005.51
2022-10-24T16:16:35.891Z,1005.51
2022-10-24T16:18:35.785Z,1005.65
2022-10-24T16:20:35.528Z,1005.65
2022-10-24T16:22:35.841Z,1005.63
2022-10-24T16:24:35.316Z,1005.63
2022-10-24T16:26:35.696Z,1005.63
2022-10-24T16:28:35.869Z,1005.63
2022-10-24T16:30:35.309Z,1005.66
2022-10-24T16:32:35.248Z,1005.66
2022-10-24T16:34:35.372Z,1005.77
2022-10-24T16:36:36.364Z,1005.77
2022-10-24T16:38:35.471Z,1005.76
2022-10-24T16:40:35.950Z,1005.76
2022-10-24T16:42:35.458Z,1005.89
2022-10-24T16:44:35.515Z,1005.89
2022-10-24T16:46:35.156Z,1005.86
2022-10-24T16:48:35.687Z,1005.86
2022-10-24T16:50:36.016Z,1005.84
2022-10-24T16:52:35.514Z,1005.84
2022-10-24T16:54:35.722Z,1005.84
2022-10-24T16:56:35.857Z,1005.84
2022-10-24T16:58:35.990Z,1005.94
2022-10-24T17:00:40.302Z,1005.94
2022-10-24T17:02:35.236Z,1006.06
2022-10-24T17:04:35.881Z,1006.06
2022-10-24T17:06:35.470Z,1006.02
2022-10-24T17:08:35.220Z,1006.02
2022-10-24T17:10:36.410Z,1006.03
2022-10-24T17:12:35.721Z,1006.03
2022-10-24T17:14:35.406Z,1006.11
2022-10-24T17:16:35.381Z,1006.11
2022-10-24T17:18:35.537Z,1006.17
2022-10-24T17:20:35.136Z,1006.17
2022-10-24T17:22:35.851Z,1006.14
2022-10-24T17:24:35.548Z,1006.14
2022-10-24T17:26:35.397Z,1006.33
2022-10-24T17:28:35.459Z,1006.33
2022-10-24T17:30:35.835Z,1006.19
2022-10-24T17:32:35.186Z,1006.19
2022-10-24T17:34:35.269Z,1006.3
2022-10-24T17:36:35.230Z,1006.3
2022-10-24T17:38:35.158Z,1006.32
2022-10-24T17:40:35.261Z,1006.32
2022-10-24T17:42:35.311Z,1006.35
2022-10-24T17:44:35.051Z,1006.35
2022-10-24T17:46:35.960Z,1006.31
2022-10-24T17:48:35.787Z,1006.31
2022-10-24T17:50:35.503Z,1006.37
2022-10-24T17:52:35.917Z,1006.37
2022-10-24T17:54:35.578Z,1006.46
2022-10-24T17:56:37.286Z,1006.46
2022-10-24T17:58:35.951Z,1006.5
2022-10-24T18:00:37.885Z,1006.5
2022-10-24T18:02:36.185Z,1006.52
2022-10-24T18:04:35.169Z,1006.52
2022-10-24T18:06:38.158Z,1006.5
2022-10-24T18:08:35.323Z,1006.5
2022-10-24T18:10:35.743Z,1006.62
2022-10-24T18:12:35.062Z,1006.59
2022-10-24T18:14:35.060Z,1006.59
2022-10-24T18:16:39.855Z,1006.59
2022-10-24T18:18:35.050Z,1006.59
2022-10-24T18:20:35.436Z,1006.66
2022-10-24T18:22:35.589Z,1006.66
2022-10-24T18:24:35.425Z,1006.68
2022-10-24T18:26:35.818Z,1006.68
2022-10-24T18:28:35.449Z,1006.61
2022-10-24T18:30:36.058Z,1006.61
2022-10-24T18:32:35.228Z,1006.63
2022-10-24T18:34:41.387Z,1006.63
2022-10-24T18:36:34.969Z,1006.75
2022-10-24T18:38:35.571Z,1006.75
2022-10-24T18:40:35.774Z,1006.76
2022-10-24T18:42:35.054Z,1006.76
2022-10-24T18:44:36.228Z,1006.73
2022-10-24T18:46:35.426Z,1006.73
2022-10-24T18:48:35.046Z,1006.8
2022-10-24T18:50:35.196Z,1006.8
2022-10-24T18:52:35.495Z,1006.9
2022-10-24T18:54:35.743Z,1006.9
2022-10-24T18:56:38.726Z,1006.89
2022-10-24T18:58:35.837Z,1006.89
2022-10-24T19:00:38.403Z,1006.86
2022-10-24T19:02:35.755Z,1006.86
2022-10-24T19:04:35.574Z,1006.99
2022-10-24T19:06:35.124Z,1006.99
2022-10-24T19:08:35.272Z,1006.94
2022-10-24T19:10:35.516Z,1006.94
2022-10-24T19:12:35.461Z,1006.94
2022-10-24T19:14:35.877Z,1006.94
2022-10-24T19:16:41.378Z,1007.02
2022-10-24T19:18:35.418Z,1007.02
2022-10-24T19:20:35.822Z,1006.86
2022-10-24T19:22:35.789Z,1006.86
2022-10-24T19:24:35.951Z,1007.06
2022-10-24T19:26:35.454Z,1007.06
2022-10-24T19:28:35.708Z,1007.07
2022-10-24T19:30:35.257Z,1007.07
2022-10-24T19:32:35.942Z,1006.99
2022-10-24T19:34:35.630Z,1006.99
2022-10-24T19:36:39.356Z,1007.02
2022-10-24T19:38:35.701Z,1007.02
2022-10-24T19:40:35.236Z,1006.99
2022-10-24T19:42:35.581Z,1006.99
2022-10-24T19:44:35.549Z,1007.09
2022-10-24T19:46:53.317Z,1007.09
2022-10-24T19:48:35.877Z,1007.04
2022-10-24T19:50:35.292Z,1007.04
2022-10-24T19:52:35.531Z,1007.08
2022-10-24T19:54:35.028Z,1007.08
2022-10-24T19:56:36.860Z,1007.17
2022-10-24T19:58:35.835Z,1007.17
2022-10-24T20:00:36.528Z,1007.06
2022-10-24T20:02:35.357Z,1007.06
2022-10-24T20:04:35.725Z,1007.17
2022-10-24T20:06:35.076Z,1007.17
2022-10-24T20:08:35.487Z,1007.1
2022-10-24T20:10:35.629Z,1007.1
2022-10-24T20:12:35.899Z,1007.07
2022-10-24T20:14:35.807Z,1007.07
2022-10-24T20:16:35.155Z,1007.23
2022-10-24T20:18:35.585Z,1007.23
2022-10-24T20:20:35.208Z,1007.11
2022-10-24T20:22:36.576Z,1007.11
2022-10-24T20:24:35.085Z,1007.16
2022-10-24T20:26:35.568Z,1007.16
2022-10-24T20:28:35.585Z,1007.19
2022-10-24T20:30:35.339Z,1007.19
2022-10-24T20:32:35.046Z,1007.15
2022-10-24T20:34:41.900Z,1007.15
2022-10-24T20:36:35.257Z,1007.26
2022-10-24T20:38:35.540Z,1007.26
2022-10-24T20:40:35.640Z,1007.31
2022-10-24T20:42:35.692Z,1007.31
2022-10-24T20:44:35.432Z,1007.39
2022-10-24T20:46:35.424Z,1007.39
2022-10-24T20:48:35.773Z,1007.38
2022-10-24T20:50:35.365Z,1007.38
2022-10-24T20:52:35.559Z,1007.49
2022-10-24T20:54:35.270Z,1007.49
2022-10-24T20:56:37.708Z,1007.55
2022-10-24T20:58:36.179Z,1007.55
2022-10-24T21:02:36.351Z,1007.54
2022-10-24T21:04:40.896Z,1007.58
2022-10-24T21:06:35.470Z,1007.58
2022-10-24T21:08:35.695Z,1007.62
2022-10-24T21:10:35.197Z,1007.62
2022-10-24T21:12:35.901Z,1007.53
2022-10-24T21:14:35.296Z,1007.53
2022-10-24T21:16:35.086Z,1007.64
2022-10-24T21:18:35.393Z,1007.64
2022-10-24T21:20:35.956Z,1007.7
2022-10-24T21:22:35.158Z,1007.7
2022-10-24T21:24:40.469Z,1007.75
2022-10-24T21:26:35.024Z,1007.75
2022-10-24T21:28:35.041Z,1007.77
2022-10-24T21:30:37.433Z,1007.97
2022-10-24T21:32:35.546Z,1007.97
2022-10-24T21:34:35.266Z,1007.86
2022-10-24T21:36:35.952Z,1007.86
2022-10-24T21:38:35.461Z,1007.9
2022-10-24T21:40:35.054Z,1007.9
2022-10-24T21:42:35.527Z,1007.9
2022-10-24T21:44:35.178Z,1007.9
2022-10-24T21:46:35.302Z,1007.93
2022-10-24T21:48:38.657Z,1007.93
2022-10-24T21:50:35.728Z,1007.97
2022-10-24T21:52:35.593Z,1007.97
2022-10-24T21:54:35.632Z,1007.88
2022-10-24T21:56:35.754Z,1007.88
2022-10-24T21:58:35.458Z,1008.05
2022-10-24T22:00:42.700Z,1008.05
2022-10-24T22:02:36.396Z,1008.07
2022-10-24T22:04:35.542Z,1008.07
2022-10-24T22:06:35.381Z,1008.11
2022-10-24T22:08:35.160Z,1008.11
2022-10-24T22:10:35.610Z,1008.2
2022-10-24T22:12:35.261Z,1008.2
2022-10-24T22:14:35.169Z,1008.15
2022-10-24T22:16:35.423Z,1008.15
2022-10-24T22:18:35.585Z,1008.26
2022-10-24T22:20:35.838Z,1008.26
2022-10-24T22:22:35.821Z,1008.26
2022-10-24T22:24:35.256Z,1008.26
2022-10-24T22:26:35.506Z,1008.34
2022-10-24T22:28:35.072Z,1008.34
2022-10-24T22:30:35.325Z,1008.24
2022-10-24T22:32:35.289Z,1008.24
2022-10-24T22:34:35.347Z,1008.44
2022-10-24T22:36:35.368Z,1008.44
2022-10-24T22:38:35.472Z,1008.36
2022-10-24T22:40:35.307Z,1008.36
2022-10-24T22:42:40.186Z,1008.4
2022-10-24T22:44:35.192Z,1008.4
2022-10-24T22:46:35.352Z,1008.31
2022-10-24T22:48:35.750Z,1008.31
2022-10-24T22:50:35.162Z,1008.34
2022-10-24T22:52:35.364Z,1008.34
2022-10-24T22:54:35.895Z,1008.4
2022-10-24T22:56:35.771Z,1008.4
2022-10-24T22:58:35.674Z,1008.39
2022-10-24T23:00:35.086Z,1008.39
2022-10-24T23:02:37.048Z,1008.5
2022-10-24T23:04:35.265Z,1008.5
2022-10-24T23:06:35.817Z,1008.57
2022-10-24T23:08:36.022Z,1008.57
2022-10-24T23:10:35.364Z,1008.5
2022-10-24T23:12:35.969Z,1008.5
2022-10-24T23:14:35.645Z,1008.52
2022-10-24T23:16:35.820Z,1008.52
2022-10-24T23:18:35.671Z,1008.61
2022-10-24T23:20:35.643Z,1008.61
2022-10-24T23:22:35.733Z,1008.67
2022-10-24T23:24:35.819Z,1008.67
2022-10-24T23:26:35.853Z,1008.7
2022-10-24T23:28:35.565Z,1008.7
2022-10-24T23:30:35.711Z,1008.87
2022-10-24T23:32:35.655Z,1008.87
2022-10-24T23:34:35.610Z,1008.65
2022-10-24T23:36:40.625Z,1008.65
2022-10-24T23:38:35.212Z,1008.59
2022-10-24T23:40:35.753Z,1008.59
2022-10-24T23:42:35.069Z,1008.64
2022-10-24T23:44:35.599Z,1008.64
2022-10-24T23:46:35.366Z,1008.77
2022-10-24T23:48:35.938Z,1008.77
2022-10-24T23:50:35.622Z,1008.81
2022-10-24T23:52:35.230Z,1008.81
2022-10-24T23:54:35.315Z,1008.89
2022-10-24T23:56:35.239Z,1008.89
2022-10-24T23:58:35.620Z,1008.99
